createdAt,value
2018-10-12T00:01:02.627Z,99.02
2018-10-12T00:03:31.926Z,100.00
2018-10-12T00:06:01.042Z,100.00
2018-10-12T00:08:30.116Z,99.16
2018-10-12T00:10:59.311Z,99.08
2018-10-12T00:13:28.383Z,98.43
2018-10-12T00:15:57.398Z,97.76
2018-10-12T00:18:26.612Z,98.04
2018-10-12T00:20:55.655Z,97.56
2018-10-12T00:23:24.728Z,97.50
2018-10-12T00:25:54.999Z,97.64
2018-10-12T00:28:24.023Z,96.64
2018-10-12T00:30:52.990Z,95.51
2018-10-12T00:33:22.071Z,95.52
2018-10-12T00:35:51.114Z,95.61
2018-10-12T00:38:20.073Z,95.79
2018-10-12T00:40:49.475Z,95.80
2018-10-12T00:43:18.348Z,95.50
2018-10-12T00:45:47.293Z,95.24
2018-10-12T00:48:16.287Z,95.57
2018-10-12T00:50:45.306Z,96.04
2018-10-12T00:53:14.358Z,95.49
2018-10-12T00:55:43.321Z,95.40
2018-10-12T00:58:12.412Z,94.94
2018-10-12T01:00:41.619Z,94.42
2018-10-12T01:03:11.681Z,95.48
2018-10-12T01:05:40.677Z,95.38
2018-10-12T01:08:10.116Z,94.96
2018-10-12T01:10:39.413Z,95.42
2018-10-12T01:13:08.442Z,95.27
2018-10-12T01:15:37.496Z,94.87
2018-10-12T01:18:08.074Z,95.11
2018-10-12T01:20:37.186Z,94.01
2018-10-12T01:23:06.215Z,93.71
2018-10-12T01:25:36.412Z,93.77
2018-10-12T01:28:05.366Z,93.91
2018-10-12T01:30:34.501Z,93.67
2018-10-12T01:33:04.535Z,93.98
2018-10-12T01:35:34.005Z,94.29
2018-10-12T01:38:03.138Z,93.92
2018-10-12T01:40:32.812Z,94.93
2018-10-12T01:43:02.342Z,95.24
2018-10-12T01:45:31.586Z,95.91
2018-10-12T01:48:00.781Z,95.71
2018-10-12T01:50:29.906Z,95.81
2018-10-12T01:52:59.229Z,96.60
2018-10-12T01:55:28.563Z,97.15
2018-10-12T01:57:57.498Z,97.46
2018-10-12T02:00:26.492Z,97.43
2018-10-12T02:02:55.906Z,97.60
2018-10-12T02:05:24.905Z,97.27
2018-10-12T02:07:54.022Z,96.84
2018-10-12T02:10:23.101Z,96.48
2018-10-12T02:12:52.282Z,95.75
2018-10-12T02:15:21.232Z,95.11
2018-10-12T02:17:51.581Z,95.18
2018-10-12T02:20:20.664Z,94.48
2018-10-12T02:22:49.872Z,94.42
2018-10-12T02:25:19.124Z,94.75
2018-10-12T02:27:48.080Z,94.69
2018-10-12T02:30:17.073Z,94.76
2018-10-12T02:32:46.414Z,94.53
2018-10-12T02:35:15.396Z,94.04
2018-10-12T02:37:44.470Z,94.59
2018-10-12T02:40:13.629Z,94.81
2018-10-12T02:42:42.629Z,94.37
2018-10-12T02:45:11.549Z,93.41
2018-10-12T02:47:40.695Z,93.18
2018-10-12T02:50:09.734Z,93.15
2018-10-12T02:52:38.814Z,93.30
2018-10-12T02:55:08.446Z,92.92
2018-10-12T02:57:37.531Z,93.52
2018-10-12T03:00:06.883Z,93.26
2018-10-12T03:02:36.280Z,93.59
2018-10-12T03:05:05.997Z,93.37
2018-10-12T03:07:35.073Z,93.24
2018-10-12T03:10:04.650Z,93.25
2018-10-12T03:12:33.556Z,93.98
2018-10-12T03:15:02.464Z,93.62
2018-10-12T03:17:31.963Z,93.67
2018-10-12T03:20:01.054Z,93.89
2018-10-12T03:22:30.078Z,93.95
2018-10-12T03:24:59.409Z,94.34
2018-10-12T03:27:28.313Z,93.70
2018-10-12T03:29:57.437Z,94.44
2018-10-12T03:32:27.489Z,94.24
2018-10-12T03:34:56.774Z,94.48
2018-10-12T03:37:26.007Z,94.69
2018-10-12T03:39:55.249Z,94.09
2018-10-12T03:42:24.429Z,94.36
2018-10-12T03:44:53.482Z,94.20
2018-10-12T03:47:22.800Z,93.93
2018-10-12T03:49:51.793Z,93.72
2018-10-12T03:52:20.812Z,94.19
2018-10-12T03:54:50.166Z,94.00
2018-10-12T03:57:19.236Z,93.75
2018-10-12T03:59:48.289Z,93.93
2018-10-12T04:02:17.768Z,94.16
2018-10-12T04:04:47.104Z,94.58
2018-10-12T04:07:16.214Z,94.42
2018-10-12T04:09:45.327Z,94.80
2018-10-12T04:12:14.392Z,95.35
2018-10-12T04:14:43.335Z,94.71
2018-10-12T04:17:13.039Z,94.74
2018-10-12T04:19:41.980Z,94.03
2018-10-12T04:22:11.476Z,94.51
2018-10-12T04:24:41.184Z,94.72
2018-10-12T04:27:10.295Z,94.94
2018-10-12T04:29:39.604Z,95.57
2018-10-12T04:32:08.956Z,96.38
2018-10-12T04:34:37.968Z,96.67
2018-10-12T04:37:07.237Z,97.25
2018-10-12T04:41:54.826Z,97.22
2018-10-12T04:44:23.886Z,97.62
2018-10-12T04:46:53.088Z,97.04
2018-10-12T04:49:22.609Z,97.37
2018-10-12T04:51:53.377Z,96.59
2018-10-12T04:54:22.748Z,96.94
2018-10-12T04:56:52.343Z,96.88
2018-10-12T04:59:21.508Z,97.50
2018-10-12T05:01:51.129Z,97.12
2018-10-12T05:04:20.318Z,97.81
2018-10-12T05:06:49.595Z,97.05
2018-10-12T05:09:18.807Z,96.87
2018-10-12T05:11:48.020Z,97.32
2018-10-12T05:14:17.193Z,97.02
2018-10-12T05:16:47.463Z,96.35
2018-10-12T05:19:16.460Z,96.44
2018-10-12T05:21:45.354Z,96.75
2018-10-12T05:24:14.801Z,96.93
2018-10-12T05:26:43.781Z,97.29
2018-10-12T05:29:13.006Z,96.58
2018-10-12T05:31:42.213Z,96.90
2018-10-12T05:34:11.279Z,96.70
2018-10-12T05:36:40.183Z,96.63
2018-10-12T05:39:11.222Z,97.46
2018-10-12T05:41:40.171Z,96.80
2018-10-12T05:44:09.125Z,96.45
2018-10-12T05:46:38.405Z,95.76
2018-10-12T05:49:18.136Z,95.60
2018-10-12T05:51:47.403Z,94.92
2018-10-12T05:54:16.609Z,95.55
2018-10-12T05:56:46.413Z,95.08
2018-10-12T05:59:16.031Z,94.83
2018-10-12T06:01:45.025Z,94.16
2018-10-12T06:04:13.999Z,94.37
2018-10-12T06:06:43.013Z,94.56
2018-10-12T06:09:11.985Z,94.32
2018-10-12T06:11:40.916Z,93.72
2018-10-12T06:14:10.188Z,93.23
2018-10-12T06:16:39.131Z,91.63
2018-10-12T06:19:08.108Z,90.27
2018-10-12T06:21:37.388Z,89.91
2018-10-12T06:24:06.560Z,88.89
2018-10-12T06:26:35.619Z,87.70
2018-10-12T06:29:04.592Z,86.43
2018-10-12T06:31:33.591Z,86.28
2018-10-12T06:34:02.680Z,86.87
2018-10-12T06:36:31.613Z,85.70
2018-10-12T06:39:00.552Z,84.98
2018-10-12T06:41:29.666Z,84.28
2018-10-12T06:43:59.139Z,83.26
2018-10-12T06:46:28.074Z,82.80
2018-10-12T06:48:56.959Z,80.14
2018-10-12T06:51:26.197Z,79.94
2018-10-12T06:53:55.213Z,79.10
2018-10-12T06:56:24.313Z,78.85
2018-10-12T06:58:53.335Z,78.39
2018-10-12T07:01:22.422Z,77.63
2018-10-12T07:03:51.457Z,77.02
2018-10-12T07:06:20.649Z,76.64
2018-10-12T07:08:49.742Z,75.94
2018-10-12T07:11:18.733Z,75.40
2018-10-12T07:13:48.224Z,75.61
2018-10-12T07:16:17.787Z,75.60
2018-10-12T07:18:46.685Z,74.91
2018-10-12T07:23:54.493Z,72.01
2018-10-12T07:26:23.431Z,71.67
2018-10-12T07:28:52.325Z,72.75
2018-10-12T07:31:21.429Z,71.10
2018-10-12T07:33:50.440Z,69.67
2018-10-12T07:36:19.305Z,69.09
2018-10-12T07:38:48.303Z,69.50
2018-10-12T07:41:17.292Z,70.04
2018-10-12T07:43:46.319Z,67.40
2018-10-12T07:46:15.465Z,66.00
2018-10-12T07:48:44.404Z,67.40
2018-10-12T07:51:13.258Z,66.46
2018-10-12T07:53:42.316Z,66.98
2018-10-12T07:56:11.263Z,67.83
2018-10-12T07:58:41.225Z,64.50
2018-10-12T08:01:10.584Z,64.83
2018-10-12T08:03:39.350Z,64.89
2018-10-12T08:06:08.273Z,65.49
2018-10-12T08:08:37.448Z,65.14
2018-10-12T08:11:06.452Z,64.87
2018-10-12T08:13:35.427Z,63.65
2018-10-12T08:16:04.744Z,62.65
2018-10-12T08:18:33.903Z,63.27
2018-10-12T08:21:02.946Z,64.05
2018-10-12T08:23:31.904Z,62.09
2018-10-12T08:26:00.903Z,61.67
2018-10-12T08:28:29.853Z,62.25
2018-10-12T08:30:59.224Z,61.95
2018-10-12T08:33:28.246Z,61.81
2018-10-12T08:35:57.408Z,59.95
2018-10-12T08:38:27.010Z,60.28
2018-10-12T08:40:56.017Z,60.21
2018-10-12T08:43:24.956Z,59.60
2018-10-12T08:45:54.226Z,55.88
2018-10-12T08:55:08.130Z,52.36
2018-10-12T08:57:37.148Z,52.05
2018-10-12T09:00:06.183Z,50.20
2018-10-12T09:02:35.384Z,50.85
2018-10-12T09:05:04.248Z,51.54
2018-10-12T09:07:33.227Z,50.62
2018-10-12T09:10:02.622Z,49.86
2018-10-12T09:12:31.618Z,49.70
2018-10-12T09:15:00.589Z,50.79
2018-10-12T09:17:29.574Z,47.95
2018-10-12T09:19:58.861Z,47.92
2018-10-12T09:22:27.836Z,47.32
2018-10-12T09:24:56.699Z,46.90
2018-10-12T09:27:25.726Z,47.49
2018-10-12T09:29:54.627Z,46.20
2018-10-12T09:32:23.569Z,46.63
2018-10-12T09:34:52.546Z,46.53
2018-10-12T09:37:21.576Z,45.93
2018-10-12T09:39:50.800Z,45.66
2018-10-12T09:42:19.741Z,44.42
2018-10-12T09:44:48.697Z,44.52
2018-10-12T09:47:17.729Z,44.12
2018-10-12T09:49:46.745Z,44.75
2018-10-12T09:52:15.717Z,44.10
2018-10-12T09:54:45.180Z,45.33
2018-10-12T09:57:19.202Z,44.55
2018-10-12T09:59:48.388Z,45.09
2018-10-12T10:02:23.791Z,44.12
2018-10-12T10:04:53.107Z,43.83
2018-10-12T10:07:22.016Z,43.03
2018-10-12T10:09:50.971Z,42.63
2018-10-12T10:12:19.832Z,44.16
2018-10-12T10:14:48.675Z,41.68
2018-10-12T10:17:17.595Z,42.65
2018-10-12T10:19:46.774Z,42.77
2018-10-12T10:22:15.739Z,42.87
2018-10-12T10:24:44.719Z,44.72
2018-10-12T10:27:13.642Z,45.04
2018-10-12T10:29:42.848Z,44.15
2018-10-12T10:32:11.877Z,43.57
2018-10-12T10:34:40.782Z,44.01
2018-10-12T10:37:09.853Z,44.01
2018-10-12T10:39:38.712Z,43.22
2018-10-12T10:42:07.778Z,43.55
2018-10-12T10:44:36.718Z,41.50
2018-10-12T10:47:05.662Z,42.73
2018-10-12T10:49:34.805Z,42.98
2018-10-12T10:52:03.810Z,42.96
2018-10-12T10:54:32.735Z,43.13
2018-10-12T10:57:04.607Z,44.36
2018-10-12T10:59:36.620Z,44.01
2018-10-12T11:02:05.679Z,43.92
2018-10-12T11:04:34.884Z,45.26
2018-10-12T11:07:04.281Z,45.41
2018-10-12T11:09:33.241Z,45.95
2018-10-12T11:12:02.149Z,46.50
2018-10-12T11:14:31.124Z,45.27
2018-10-12T11:17:00.266Z,45.14
2018-10-12T11:19:29.233Z,45.33
2018-10-12T11:21:58.141Z,45.37
2018-10-12T11:24:27.111Z,45.50
2018-10-12T11:26:56.119Z,44.99
2018-10-12T11:29:24.970Z,45.29
2018-10-12T11:31:53.988Z,44.68
2018-10-12T11:34:23.094Z,43.81
2018-10-12T11:36:51.945Z,43.75
2018-10-12T11:39:20.924Z,43.89
2018-10-12T11:41:50.100Z,42.64
2018-10-12T11:44:19.024Z,43.32
2018-10-12T11:46:48.163Z,40.92
2018-10-12T11:49:17.184Z,42.54
2018-10-12T11:51:46.160Z,42.34
2018-10-12T11:54:15.251Z,41.58
2018-10-12T11:56:44.428Z,42.61
2018-10-12T11:59:13.554Z,41.96
2018-10-12T12:01:42.860Z,41.16
2018-10-12T12:04:11.859Z,41.21
2018-10-12T12:06:40.945Z,41.52
2018-10-12T12:09:10.077Z,41.53
2018-10-12T12:11:39.156Z,41.33
2018-10-12T12:14:08.416Z,41.53
2018-10-12T12:16:37.819Z,40.58
2018-10-12T12:19:06.890Z,40.41
2018-10-12T12:21:35.972Z,40.68
2018-10-12T12:24:05.114Z,41.93
2018-10-12T12:26:34.314Z,39.84
2018-10-12T12:29:03.333Z,41.08
2018-10-12T12:31:32.566Z,41.28
2018-10-12T12:34:01.627Z,41.34
2018-10-12T12:36:30.722Z,41.61
2018-10-12T12:38:59.959Z,41.17
2018-10-12T12:41:29.046Z,40.60
2018-10-12T12:43:59.228Z,40.50
2018-10-12T12:46:28.409Z,41.00
2018-10-12T12:48:57.975Z,40.25
2018-10-12T12:51:26.705Z,40.19
2018-10-12T12:53:56.476Z,39.83
2018-10-12T12:56:25.449Z,41.16
2018-10-12T12:58:54.657Z,41.70
2018-10-12T13:01:23.602Z,41.17
2018-10-12T13:03:52.739Z,42.54
2018-10-12T13:06:21.904Z,41.79
2018-10-12T13:08:51.067Z,41.58
2018-10-12T13:11:20.247Z,41.98
2018-10-12T13:13:49.293Z,42.31
2018-10-12T13:16:18.393Z,42.35
2018-10-12T13:18:47.417Z,42.52
2018-10-12T13:21:16.306Z,41.67
2018-10-12T13:23:45.348Z,41.66
2018-10-12T13:26:14.523Z,41.22
2018-10-12T13:28:43.373Z,42.78
2018-10-12T13:31:12.652Z,42.33
2018-10-12T13:33:41.764Z,41.59
2018-10-12T13:36:10.884Z,42.13
2018-10-12T13:38:40.081Z,42.09
2018-10-12T13:41:09.167Z,42.38
2018-10-12T13:43:38.249Z,43.81
2018-10-12T13:46:07.286Z,43.35
2018-10-12T13:48:36.134Z,42.44
2018-10-12T13:51:05.351Z,43.22
2018-10-12T13:53:34.725Z,43.33
2018-10-12T13:56:03.982Z,43.49
2018-10-12T13:58:32.985Z,41.96
2018-10-12T14:01:02.253Z,42.21
2018-10-12T14:03:31.431Z,42.55
2018-10-12T14:06:00.549Z,42.88
2018-10-12T14:08:29.552Z,43.53
2018-10-12T14:10:58.593Z,44.43
2018-10-12T14:13:27.728Z,44.79
2018-10-12T14:15:57.123Z,45.22
2018-10-12T14:18:26.158Z,45.19
2018-10-12T14:20:55.191Z,44.30
2018-10-12T14:23:24.375Z,44.05
2018-10-12T14:25:53.490Z,44.44
2018-10-12T14:28:22.565Z,44.34
2018-10-12T14:30:51.859Z,44.61
2018-10-12T14:33:20.803Z,45.08
2018-10-12T14:35:52.132Z,44.08
2018-10-12T14:38:21.330Z,45.01
2018-10-12T14:40:50.559Z,44.76
2018-10-12T14:43:19.803Z,45.19
2018-10-12T14:45:49.740Z,45.46
2018-10-12T14:48:18.768Z,45.86
2018-10-12T14:50:47.932Z,46.28
2018-10-12T14:53:21.265Z,46.01
2018-10-12T14:55:51.875Z,46.41
2018-10-12T14:58:21.166Z,46.28
2018-10-12T15:00:50.274Z,46.98
2018-10-12T15:03:19.914Z,46.34
2018-10-12T15:05:49.060Z,47.38
2018-10-12T15:08:18.320Z,47.09
2018-10-12T15:10:47.598Z,48.18
2018-10-12T15:13:16.647Z,47.96
2018-10-12T15:15:45.734Z,48.06
2018-10-12T15:18:14.838Z,47.80
2018-10-12T15:20:48.834Z,48.25
2018-10-12T15:23:18.395Z,48.48
2018-10-12T15:25:47.420Z,47.51
2018-10-12T15:28:16.575Z,48.78
2018-10-12T15:30:45.649Z,49.11
2018-10-12T15:33:14.592Z,48.80
2018-10-12T15:35:43.792Z,48.77
2018-10-12T15:38:13.192Z,49.67
2018-10-12T15:40:42.726Z,49.41
2018-10-12T15:43:11.770Z,49.57
2018-10-12T15:45:41.748Z,50.05
2018-10-12T15:48:10.775Z,50.12
2018-10-12T15:50:39.769Z,50.26
2018-10-12T15:53:08.922Z,50.37
2018-10-12T15:55:38.519Z,50.79
2018-10-12T15:58:07.540Z,50.83
2018-10-12T16:00:36.682Z,51.41
2018-10-12T16:03:05.802Z,51.65
2018-10-12T16:05:35.096Z,51.77
2018-10-12T16:08:04.269Z,51.64
2018-10-12T16:10:33.435Z,52.10
2018-10-12T16:13:02.435Z,51.81
2018-10-12T16:15:31.667Z,51.87
2018-10-12T16:18:00.808Z,52.24
2018-10-12T16:20:29.904Z,52.64
2018-10-12T16:22:59.472Z,52.57
2018-10-12T16:26:04.529Z,53.19
2018-10-12T16:28:33.802Z,53.10
2018-10-12T16:31:03.051Z,52.78
2018-10-12T16:33:32.192Z,52.86
2018-10-12T16:36:01.531Z,53.35
2018-10-12T16:38:34.864Z,53.34
2018-10-12T16:41:04.021Z,53.18
2018-10-12T16:43:33.078Z,53.23
2018-10-12T16:46:02.347Z,53.40
2018-10-12T16:48:31.480Z,53.85
2018-10-12T16:51:00.607Z,53.46
2018-10-12T16:53:29.665Z,54.47
2018-10-12T16:55:59.050Z,54.65
2018-10-12T16:58:27.994Z,54.36
2018-10-12T17:00:57.239Z,54.95
2018-10-12T17:03:26.369Z,55.29
2018-10-12T17:05:55.492Z,55.30
2018-10-12T17:08:24.602Z,55.86
2018-10-12T17:10:54.195Z,56.74
2018-10-12T17:13:24.877Z,58.15
2018-10-12T17:15:55.942Z,58.52
2018-10-12T17:18:25.519Z,59.04
2018-10-12T17:20:54.678Z,58.96
2018-10-12T17:23:24.224Z,57.92
2018-10-12T17:25:53.965Z,58.44
2018-10-12T17:28:23.130Z,58.99
2018-10-12T17:30:52.694Z,58.86
2018-10-12T17:33:23.011Z,58.78
2018-10-12T17:35:53.231Z,58.83
2018-10-12T17:38:22.305Z,59.24
2018-10-12T17:40:51.373Z,59.18
2018-10-12T17:43:21.106Z,59.66
2018-10-12T17:45:50.166Z,60.28
2018-10-12T17:48:19.181Z,60.32
2018-10-12T17:50:48.370Z,60.57
2018-10-12T17:53:17.463Z,60.42
2018-10-12T17:55:46.903Z,60.43
2018-10-12T17:58:15.976Z,60.81
2018-10-12T18:00:45.262Z,60.93
2018-10-12T18:03:14.467Z,61.12
2018-10-12T18:05:43.561Z,61.36
2018-10-12T18:08:12.577Z,61.21
2018-10-12T18:10:41.628Z,61.21
2018-10-12T18:13:10.923Z,60.39
2018-10-12T18:15:40.193Z,60.68
2018-10-12T18:18:09.250Z,60.80
2018-10-12T18:20:38.285Z,61.38
2018-10-12T18:23:07.561Z,61.31
2018-10-12T18:25:36.690Z,61.59
2018-10-12T18:28:05.783Z,62.48
2018-10-12T18:30:34.997Z,63.16
2018-10-12T18:33:04.074Z,63.10
2018-10-12T18:35:34.469Z,62.99
2018-10-12T18:38:03.752Z,63.46
2018-10-12T18:40:33.355Z,62.48
2018-10-12T18:43:02.642Z,62.47
2018-10-12T18:45:31.520Z,61.66
2018-10-12T18:48:00.771Z,61.94
2018-10-12T18:50:30.328Z,61.75
2018-10-12T18:52:59.458Z,62.14
2018-10-12T18:55:29.331Z,62.06
2018-10-12T18:58:04.212Z,63.34
2018-10-12T19:00:33.705Z,66.74
2018-10-12T19:03:06.632Z,70.79
2018-10-12T19:05:35.994Z,76.12
2018-10-12T19:08:08.118Z,78.70
2018-10-12T19:10:37.720Z,82.07
2018-10-12T19:13:06.808Z,84.91
2018-10-12T19:15:36.103Z,87.50
2018-10-12T19:18:05.232Z,89.08
2018-10-12T19:20:34.497Z,90.68
2018-10-12T19:23:03.508Z,92.05
2018-10-12T19:25:32.632Z,92.10
2018-10-12T19:28:01.827Z,92.58
2018-10-12T19:30:30.905Z,93.07
2018-10-12T19:33:00.033Z,93.71
2018-10-12T19:35:29.050Z,94.92
2018-10-12T19:37:58.313Z,96.00
2018-10-12T19:40:27.782Z,96.61
2018-10-12T19:42:57.001Z,97.14
2018-10-12T19:45:25.965Z,98.60
2018-10-12T19:47:55.293Z,98.28
2018-10-12T19:50:24.543Z,99.57
2018-10-12T19:52:53.665Z,99.73
2018-10-12T19:55:22.832Z,100.00
2018-10-12T19:57:57.411Z,100.00
2018-10-12T20:00:29.451Z,100.00
2018-10-12T20:02:58.464Z,100.00
2018-10-12T20:05:27.560Z,100.00
2018-10-12T20:07:57.228Z,100.00
2018-10-12T20:10:26.493Z,100.00
2018-10-12T20:14:25.273Z,100.00
2018-10-12T20:16:54.324Z,100.00
2018-10-12T20:19:23.429Z,100.00
2018-10-12T20:21:52.602Z,100.00
2018-10-12T20:24:21.648Z,100.00
2018-10-12T20:26:50.599Z,100.00
2018-10-12T20:29:20.230Z,100.00
2018-10-12T20:31:49.162Z,100.00
2018-10-12T20:34:18.289Z,100.00
2018-10-12T20:36:47.425Z,100.00
2018-10-12T20:39:16.736Z,100.00
2018-10-12T20:41:45.831Z,100.00
2018-10-12T20:44:15.022Z,100.00
2018-10-12T20:46:43.961Z,100.00
2018-10-12T20:49:13.200Z,100.00
2018-10-12T20:51:42.448Z,100.00
2018-10-12T20:54:11.468Z,100.00
2018-10-12T20:56:40.583Z,100.00
2018-10-12T20:59:09.750Z,100.00
2018-10-12T21:01:38.727Z,100.00
2018-10-12T21:04:08.108Z,100.00
2018-10-12T21:06:37.381Z,100.00
2018-10-12T21:09:08.552Z,100.00
2018-10-12T21:11:37.684Z,100.00
2018-10-12T21:14:07.250Z,100.00
2018-10-12T21:16:36.317Z,100.00
2018-10-12T21:19:05.837Z,100.00
2018-10-12T21:21:34.900Z,100.00
2018-10-12T21:24:03.924Z,100.00
2018-10-12T21:26:33.108Z,100.00
2018-10-12T21:29:02.188Z,100.00
2018-10-12T21:31:31.275Z,100.00
2018-10-12T21:34:00.601Z,100.00
2018-10-12T21:36:29.619Z,100.00
2018-10-12T21:38:58.575Z,100.00
2018-10-12T21:41:27.726Z,100.00
2018-10-12T21:43:56.633Z,100.00
2018-10-12T21:46:25.847Z,100.00
2018-10-12T21:48:54.916Z,100.00
2018-10-12T21:51:23.980Z,100.00
2018-10-12T21:53:53.121Z,100.00
2018-10-12T21:56:22.648Z,100.00
2018-10-12T21:58:51.708Z,100.00
2018-10-12T22:01:20.605Z,100.00
2018-10-12T22:03:49.604Z,100.00
2018-10-12T22:06:18.664Z,100.00
2018-10-12T22:08:57.813Z,100.00
2018-10-12T22:11:26.929Z,100.00
2018-10-12T22:13:56.028Z,100.00
2018-10-12T22:16:25.076Z,100.00
2018-10-12T22:18:54.217Z,100.00
2018-10-12T22:21:23.404Z,100.00
2018-10-12T22:23:52.605Z,100.00
2018-10-12T22:26:21.663Z,100.00
2018-10-12T22:28:50.857Z,100.00
2018-10-12T22:31:20.069Z,100.00
2018-10-12T22:33:49.232Z,100.00
2018-10-12T22:36:18.211Z,100.00
2018-10-12T22:38:47.280Z,100.00
2018-10-12T22:41:16.306Z,100.00
2018-10-12T22:43:45.475Z,100.00
2018-10-12T22:46:14.736Z,100.00
2018-10-12T22:48:43.785Z,100.00
2018-10-12T22:51:12.862Z,100.00
2018-10-12T22:53:42.222Z,100.00
2018-10-12T22:56:11.265Z,100.00
2018-10-12T22:58:40.217Z,100.00
2018-10-12T23:01:09.228Z,100.00
2018-10-12T23:03:38.316Z,100.00
2018-10-12T23:06:07.414Z,100.00
2018-10-12T23:08:37.012Z,100.00
2018-10-12T23:11:06.276Z,100.00
2018-10-12T23:13:35.268Z,100.00
2018-10-12T23:16:04.877Z,100.00
2018-10-12T23:18:34.079Z,100.00
2018-10-12T23:21:03.125Z,100.00
2018-10-12T23:23:32.440Z,100.00
2018-10-12T23:26:01.667Z,100.00
2018-10-12T23:28:30.760Z,100.00
2018-10-12T23:30:59.764Z,100.00
2018-10-12T23:33:39.748Z,100.00
2018-10-12T23:36:08.969Z,100.00
2018-10-12T23:38:38.233Z,100.00
2018-10-12T23:41:08.431Z,100.00
2018-10-12T23:43:39.955Z,100.00
2018-10-12T23:46:09.277Z,100.00
2018-10-12T23:48:38.744Z,100.00
2018-10-12T23:51:07.759Z,100.00
2018-10-12T23:53:36.921Z,100.00
2018-10-12T23:56:06.139Z,100.00
2018-10-12T23:58:35.189Z,100.00
